createdAt,value
2023-10-04T00:00:56.024Z,0.00
2023-10-04T00:01:55.943Z,0.00
2023-10-04T00:02:57.004Z,0.00
2023-10-04T00:03:56.040Z,0.00
2023-10-04T00:04:56.085Z,0.00
2023-10-04T00:05:55.974Z,0.00
2023-10-04T00:06:55.920Z,0.00
2023-10-04T00:07:56.957Z,0.00
2023-10-04T00:08:55.853Z,0.00
2023-10-04T00:09:55.902Z,0.00
2023-10-04T00:10:55.849Z,0.00
2023-10-04T00:11:55.853Z,0.00
2023-10-04T00:12:55.902Z,0.00
2023-10-04T00:14:03.305Z,0.00
2023-10-04T00:14:55.896Z,0.00
2023-10-04T00:15:55.848Z,0.00
2023-10-04T00:16:55.886Z,0.00
2023-10-04T00:17:55.903Z,0.00
2023-10-04T00:18:55.806Z,0.00
2023-10-04T00:19:56.772Z,0.00
2023-10-04T00:20:55.807Z,0.00
2023-10-04T00:21:55.721Z,0.00
2023-10-04T00:22:55.718Z,0.00
2023-10-04T00:23:55.807Z,0.00
2023-10-04T00:24:55.744Z,0.00
2023-10-04T00:25:56.695Z,0.00
2023-10-04T00:26:55.741Z,0.00
2023-10-04T00:27:55.705Z,0.00
2023-10-04T00:28:55.610Z,0.00
2023-10-04T00:29:55.668Z,0.00
2023-10-04T00:30:55.620Z,0.00
2023-10-04T00:31:56.592Z,0.00
2023-10-04T00:32:55.694Z,0.00
2023-10-04T00:33:55.721Z,0.00
2023-10-04T00:34:55.577Z,0.00
2023-10-04T00:35:55.775Z,0.00
2023-10-04T00:36:55.563Z,0.00
2023-10-04T00:37:56.471Z,0.00
2023-10-04T00:38:55.641Z,0.00
2023-10-04T00:39:55.545Z,0.00
2023-10-04T00:40:55.520Z,0.00
2023-10-04T00:41:55.681Z,0.00
2023-10-04T00:42:56.421Z,0.00
2023-10-04T00:43:55.409Z,0.00
2023-10-04T00:44:55.483Z,0.00
2023-10-04T00:45:55.458Z,0.00
2023-10-04T00:46:55.544Z,0.00
2023-10-04T00:47:55.484Z,0.00
2023-10-04T00:48:56.396Z,0.00
2023-10-04T00:49:55.407Z,0.00
2023-10-04T00:50:55.367Z,0.00
2023-10-04T00:51:55.400Z,0.00
2023-10-04T00:52:55.323Z,0.00
2023-10-04T00:53:56.340Z,0.00
2023-10-04T00:54:55.317Z,0.00
2023-10-04T00:55:55.370Z,0.00
2023-10-04T00:56:55.252Z,0.00
2023-10-04T00:57:55.235Z,0.00
2023-10-04T00:58:56.174Z,0.00
2023-10-04T00:59:55.213Z,0.00
2023-10-04T01:00:55.916Z,0.00
2023-10-04T01:01:55.218Z,0.00
2023-10-04T01:02:55.275Z,0.00
2023-10-04T01:03:56.240Z,0.00
2023-10-04T01:04:55.209Z,0.00
2023-10-04T01:05:55.159Z,0.00
2023-10-04T01:06:55.201Z,0.00
2023-10-04T01:07:55.105Z,0.00
2023-10-04T01:08:56.030Z,0.00
2023-10-04T01:09:55.083Z,0.00
2023-10-04T01:10:55.094Z,0.00
2023-10-04T01:11:55.090Z,0.00
2023-10-04T01:12:55.105Z,0.00
2023-10-04T01:13:55.077Z,0.00
2023-10-04T01:14:55.966Z,0.00
2023-10-04T01:15:55.185Z,0.00
2023-10-04T01:16:55.542Z,0.00
2023-10-04T01:17:55.118Z,0.00
2023-10-04T01:18:55.100Z,0.00
2023-10-04T01:19:55.057Z,0.00
2023-10-04T01:20:55.898Z,0.00
2023-10-04T01:21:54.914Z,0.00
2023-10-04T01:22:54.946Z,0.00
2023-10-04T01:23:55.003Z,0.00
2023-10-04T01:24:54.927Z,0.00
2023-10-04T01:25:54.909Z,0.00
2023-10-04T01:26:55.841Z,0.00
2023-10-04T01:27:54.873Z,0.00
2023-10-04T01:28:55.064Z,0.00
2023-10-04T01:29:54.838Z,0.00
2023-10-04T01:30:54.830Z,0.00
2023-10-04T01:31:55.807Z,0.00
2023-10-04T01:32:54.972Z,0.00
2023-10-04T01:33:54.905Z,0.00
2023-10-04T01:34:54.764Z,0.00
2023-10-04T01:35:54.823Z,0.00
2023-10-04T01:36:55.766Z,0.00
2023-10-04T01:37:54.732Z,0.00
2023-10-04T01:38:54.707Z,0.00
2023-10-04T01:39:54.747Z,0.00
2023-10-04T01:40:54.791Z,0.00
2023-10-04T01:41:54.679Z,0.00
2023-10-04T01:42:55.668Z,0.00
2023-10-04T01:43:54.692Z,0.00
2023-10-04T01:44:54.690Z,0.00
2023-10-04T01:45:54.680Z,0.00
2023-10-04T01:46:54.716Z,0.00
2023-10-04T01:47:54.677Z,0.00
2023-10-04T01:48:55.732Z,0.00
2023-10-04T01:49:54.585Z,0.00
2023-10-04T01:50:54.594Z,0.00
2023-10-04T01:51:55.602Z,0.00
2023-10-04T01:52:54.571Z,0.00
2023-10-04T01:53:55.531Z,0.00
2023-10-04T01:54:54.514Z,0.00
2023-10-04T01:55:54.524Z,0.00
2023-10-04T01:56:54.564Z,0.00
2023-10-04T01:57:54.475Z,0.00
2023-10-04T01:58:54.438Z,0.00
2023-10-04T01:59:55.409Z,0.00
2023-10-04T02:00:54.646Z,0.00
2023-10-04T02:01:54.608Z,0.00
2023-10-04T02:02:54.520Z,0.00
2023-10-04T02:03:54.618Z,0.00
2023-10-04T02:04:54.476Z,0.00
2023-10-04T02:05:55.403Z,0.00
2023-10-04T02:06:54.368Z,0.00
2023-10-04T02:07:54.381Z,0.00
2023-10-04T02:08:54.414Z,0.00
2023-10-04T02:09:54.324Z,0.00
2023-10-04T02:10:54.402Z,0.00
2023-10-04T02:11:55.344Z,0.00
2023-10-04T02:12:54.315Z,0.00
2023-10-04T02:13:54.272Z,0.00
2023-10-04T02:14:54.280Z,0.00
2023-10-04T02:15:54.283Z,0.00
2023-10-04T02:16:55.233Z,0.00
2023-10-04T02:17:54.275Z,0.00
2023-10-04T02:18:54.201Z,0.00
2023-10-04T02:19:54.257Z,0.00
2023-10-04T02:20:54.176Z,0.00
2023-10-04T02:21:55.183Z,0.00
2023-10-04T02:22:54.165Z,0.00
2023-10-04T02:23:54.190Z,0.00
2023-10-04T02:24:54.156Z,0.00
2023-10-04T02:25:54.104Z,0.00
2023-10-04T02:26:55.097Z,0.00
2023-10-04T02:27:54.144Z,0.00
2023-10-04T02:28:54.141Z,0.00
2023-10-04T02:29:54.090Z,0.00
2023-10-04T02:30:54.171Z,0.00
2023-10-04T02:31:55.140Z,0.00
2023-10-04T02:32:54.104Z,0.00
2023-10-04T02:33:54.121Z,0.00
2023-10-04T02:34:53.995Z,0.00
2023-10-04T02:35:54.057Z,0.00
2023-10-04T02:36:55.064Z,0.00
2023-10-04T02:37:53.983Z,0.00
2023-10-04T02:38:53.959Z,0.00
2023-10-04T02:39:53.981Z,0.00
2023-10-04T02:40:53.930Z,0.00
2023-10-04T02:41:53.947Z,0.00
2023-10-04T02:42:54.930Z,0.00
2023-10-04T02:43:53.952Z,0.00
2023-10-04T02:44:53.897Z,0.00
2023-10-04T02:45:53.890Z,0.00
2023-10-04T02:46:53.912Z,0.00
2023-10-04T02:47:54.951Z,0.00
2023-10-04T02:48:53.923Z,0.00
2023-10-04T02:49:53.876Z,0.00
2023-10-04T02:50:53.834Z,0.00
2023-10-04T02:51:53.886Z,0.00
2023-10-04T02:52:53.844Z,0.00
2023-10-04T02:53:54.736Z,0.00
2023-10-04T02:54:53.747Z,0.00
2023-10-04T02:55:53.764Z,0.00
2023-10-04T02:56:53.773Z,0.00
2023-10-04T02:57:53.745Z,0.00
2023-10-04T02:58:54.668Z,0.00
2023-10-04T02:59:53.916Z,0.00
2023-10-04T03:00:53.764Z,0.00
2023-10-04T03:01:53.672Z,0.00
2023-10-04T03:02:53.798Z,0.00
2023-10-04T03:03:54.684Z,0.00
2023-10-04T03:04:53.684Z,0.00
2023-10-04T03:05:53.670Z,0.00
2023-10-04T03:06:53.617Z,0.00
2023-10-04T03:07:53.657Z,0.00
2023-10-04T03:08:53.605Z,0.00
2023-10-04T03:09:54.533Z,0.00
2023-10-04T03:10:53.718Z,0.00
2023-10-04T03:11:53.530Z,0.00
2023-10-04T03:12:53.517Z,0.00
2023-10-04T03:13:53.599Z,0.00
2023-10-04T03:14:53.546Z,0.00
2023-10-04T03:15:54.487Z,0.00
2023-10-04T03:16:53.487Z,0.00
2023-10-04T03:17:53.579Z,0.00
2023-10-04T03:18:53.635Z,0.00
2023-10-04T03:19:53.433Z,0.00
2023-10-04T03:20:54.463Z,0.00
2023-10-04T03:21:53.509Z,0.00
2023-10-04T03:22:53.518Z,0.00
2023-10-04T03:23:53.394Z,0.00
2023-10-04T03:24:53.401Z,0.00
2023-10-04T03:25:53.341Z,0.00
2023-10-04T03:26:54.354Z,0.00
2023-10-04T03:27:53.548Z,0.00
2023-10-04T03:28:53.411Z,0.00
2023-10-04T03:29:53.333Z,0.00
2023-10-04T03:30:53.378Z,0.00
2023-10-04T03:31:54.355Z,0.00
2023-10-04T03:32:53.343Z,0.00
2023-10-04T03:33:53.486Z,0.00
2023-10-04T03:34:53.285Z,0.00
2023-10-04T03:35:53.233Z,0.00
2023-10-04T03:36:53.206Z,0.00
2023-10-04T03:37:54.129Z,0.00
2023-10-04T03:38:53.259Z,0.00
2023-10-04T03:39:53.205Z,0.00
2023-10-04T03:40:53.162Z,0.00
2023-10-04T03:41:53.235Z,0.00
2023-10-04T03:42:54.113Z,0.00
2023-10-04T03:43:53.136Z,0.00
2023-10-04T03:44:53.144Z,0.00
2023-10-04T03:45:53.118Z,0.00
2023-10-04T03:46:53.206Z,0.00
2023-10-04T03:47:53.092Z,0.00
2023-10-04T03:48:54.115Z,0.00
2023-10-04T03:49:53.177Z,0.00
2023-10-04T03:50:53.038Z,0.00
2023-10-04T03:51:53.020Z,0.00
2023-10-04T03:52:52.998Z,0.00
2023-10-04T03:53:53.065Z,0.00
2023-10-04T03:54:53.994Z,0.00
2023-10-04T03:55:53.022Z,0.00
2023-10-04T03:56:53.103Z,0.00
2023-10-04T03:57:52.928Z,0.00
2023-10-04T03:59:56.451Z,0.00
2023-10-04T04:00:56.673Z,0.00
2023-10-04T04:01:56.473Z,0.00
2023-10-04T04:02:57.040Z,0.00
2023-10-04T04:03:56.801Z,0.00
2023-10-04T04:04:57.875Z,0.00
2023-10-04T04:05:57.502Z,0.00
2023-10-04T04:06:56.365Z,0.00
2023-10-04T04:07:56.300Z,0.00
2023-10-04T04:08:56.333Z,0.00
2023-10-04T04:09:57.201Z,0.00
2023-10-04T04:10:56.308Z,0.00
2023-10-04T04:11:56.567Z,0.00
2023-10-04T04:12:56.275Z,0.00
2023-10-04T04:13:56.269Z,0.00
2023-10-04T04:14:56.437Z,0.00
2023-10-04T04:15:57.259Z,0.00
2023-10-04T04:16:56.439Z,0.00
2023-10-04T04:17:56.316Z,0.00
2023-10-04T04:18:56.457Z,0.00
2023-10-04T04:19:56.497Z,0.00
2023-10-04T04:20:57.277Z,0.00
2023-10-04T04:21:56.441Z,0.00
2023-10-04T04:22:56.151Z,0.00
2023-10-04T04:23:56.179Z,0.00
2023-10-04T04:24:56.316Z,0.00
2023-10-04T04:25:57.091Z,0.00
2023-10-04T04:26:56.126Z,0.00
2023-10-04T04:27:56.248Z,0.00
2023-10-04T04:28:56.476Z,0.00
2023-10-04T04:29:56.018Z,0.00
2023-10-04T04:30:57.164Z,0.00
2023-10-04T04:31:56.093Z,0.00
2023-10-04T04:32:56.102Z,0.00
2023-10-04T04:33:55.999Z,0.00
2023-10-04T04:34:56.021Z,0.00
2023-10-04T04:36:02.210Z,0.00
2023-10-04T04:36:56.006Z,0.00
2023-10-04T04:37:55.969Z,0.00
2023-10-04T04:38:55.949Z,0.00
2023-10-04T04:39:55.996Z,0.00
2023-10-04T04:40:57.972Z,0.00
2023-10-04T04:41:55.934Z,0.00
2023-10-04T04:42:55.936Z,0.00
2023-10-04T04:43:55.903Z,0.00
2023-10-04T04:44:55.958Z,0.00
2023-10-04T04:45:55.872Z,0.00
2023-10-04T04:46:56.859Z,4.00
2023-10-04T04:47:55.948Z,0.00
2023-10-04T04:48:55.866Z,4.00
2023-10-04T04:49:55.971Z,4.00
2023-10-04T04:50:55.786Z,4.00
2023-10-04T04:51:56.778Z,4.00
2023-10-04T04:52:55.892Z,4.00
2023-10-04T04:53:55.834Z,8.00
2023-10-04T04:54:55.881Z,8.00
2023-10-04T04:55:55.716Z,12.00
2023-10-04T04:56:56.630Z,12.00
2023-10-04T04:57:55.943Z,12.00
2023-10-04T04:58:55.708Z,16.00
2023-10-04T04:59:55.763Z,20.00
2023-10-04T05:00:55.666Z,24.00
2023-10-04T05:01:56.603Z,28.00
2023-10-04T05:02:55.794Z,28.00
2023-10-04T05:03:55.800Z,36.00
2023-10-04T05:04:55.724Z,40.00
2023-10-04T05:05:56.660Z,44.00
2023-10-04T05:06:56.583Z,52.00
2023-10-04T05:07:55.538Z,56.00
2023-10-04T05:08:56.019Z,64.00
2023-10-04T05:09:55.574Z,72.00
2023-10-04T05:10:55.641Z,84.00
2023-10-04T05:11:55.697Z,88.00
2023-10-04T05:12:56.416Z,100.00
2023-10-04T05:13:55.516Z,108.00
2023-10-04T05:14:55.569Z,120.00
2023-10-04T05:15:55.710Z,128.00
2023-10-04T05:16:55.490Z,140.00
2023-10-04T05:17:55.491Z,152.00
2023-10-04T05:18:56.481Z,164.00
2023-10-04T05:19:55.401Z,176.00
2023-10-04T05:20:55.582Z,188.00
2023-10-04T05:21:55.462Z,200.00
2023-10-04T05:22:55.463Z,220.00
2023-10-04T05:23:55.352Z,232.00
2023-10-04T05:24:56.334Z,248.00
2023-10-04T05:25:55.315Z,264.00
2023-10-04T05:26:55.424Z,284.00
2023-10-04T05:27:55.534Z,300.00
2023-10-04T05:28:55.305Z,316.00
2023-10-04T05:29:56.299Z,332.00
2023-10-04T05:30:56.271Z,352.00
2023-10-04T05:31:56.551Z,368.00
2023-10-04T05:32:55.410Z,384.00
2023-10-04T05:33:55.584Z,404.00
2023-10-04T05:34:55.216Z,424.00
2023-10-04T05:35:56.246Z,444.00
2023-10-04T05:36:56.206Z,464.00
2023-10-04T05:37:55.356Z,484.00
2023-10-04T05:38:55.273Z,500.00
2023-10-04T05:39:55.249Z,516.00
2023-10-04T05:40:55.181Z,532.00
2023-10-04T05:41:56.143Z,572.00
2023-10-04T05:42:55.254Z,600.00
2023-10-04T05:43:55.251Z,624.00
2023-10-04T05:44:55.257Z,644.00
2023-10-04T05:45:55.241Z,672.00
2023-10-04T05:46:55.156Z,664.00
2023-10-04T05:47:56.209Z,676.00
2023-10-04T05:48:55.365Z,700.00
2023-10-04T05:49:55.105Z,712.00
2023-10-04T05:50:55.085Z,768.00
2023-10-04T05:51:55.117Z,820.00
2023-10-04T05:52:55.915Z,812.00
2023-10-04T05:53:55.069Z,796.00
2023-10-04T05:54:55.010Z,852.00
2023-10-04T05:55:55.015Z,860.00
2023-10-04T05:56:55.196Z,832.00
2023-10-04T05:57:54.918Z,864.00
2023-10-04T05:58:55.970Z,864.00
2023-10-04T05:59:55.253Z,884.00
2023-10-04T06:00:55.277Z,940.00
2023-10-04T06:01:54.939Z,920.00
2023-10-04T06:02:54.979Z,972.00
2023-10-04T06:03:55.826Z,1000.00
2023-10-04T06:04:56.262Z,1052.00
2023-10-04T06:05:54.795Z,1020.00
2023-10-04T06:06:54.796Z,996.00
2023-10-04T06:07:54.914Z,1012.00
2023-10-04T06:09:01.368Z,1184.00
2023-10-04T06:09:56.572Z,1252.00
2023-10-04T06:10:55.035Z,1200.00
2023-10-04T06:11:54.827Z,1056.00
2023-10-04T06:12:54.917Z,1080.00
2023-10-04T06:13:54.774Z,1168.00
2023-10-04T06:14:55.690Z,1264.00
2023-10-04T06:15:55.423Z,1164.00
2023-10-04T06:16:54.771Z,1296.00
2023-10-04T06:17:54.821Z,1208.00
2023-10-04T06:18:54.859Z,1224.00
2023-10-04T06:19:55.711Z,1288.00
2023-10-04T06:20:54.677Z,1308.00
2023-10-04T06:21:54.912Z,1476.00
2023-10-04T06:22:54.699Z,1676.00
2023-10-04T06:23:54.570Z,1536.00
2023-10-04T06:24:54.674Z,1704.00
2023-10-04T06:25:55.501Z,1804.00
2023-10-04T06:26:54.578Z,1676.00
2023-10-04T06:27:54.621Z,1736.00
2023-10-04T06:28:54.513Z,1844.00
2023-10-04T06:29:54.515Z,2136.00
2023-10-04T06:30:55.494Z,1956.00
2023-10-04T06:31:54.523Z,2036.00
2023-10-04T06:32:54.574Z,2304.00
2023-10-04T06:33:54.518Z,2092.00
2023-10-04T06:34:55.239Z,1976.00
2023-10-04T06:35:54.466Z,1992.00
2023-10-04T06:36:55.439Z,2112.00
2023-10-04T06:37:54.398Z,2112.00
2023-10-04T06:38:54.550Z,2060.00
2023-10-04T06:39:54.451Z,2148.00
2023-10-04T06:40:54.484Z,2456.00
2023-10-04T06:41:56.034Z,2748.00
2023-10-04T06:42:54.557Z,2784.00
2023-10-04T06:43:54.445Z,2304.00
2023-10-04T06:44:54.582Z,2292.00
2023-10-04T06:45:54.390Z,2860.00
2023-10-04T06:46:55.316Z,2936.00
2023-10-04T06:47:55.967Z,2584.00
2023-10-04T06:48:54.293Z,3160.00
2023-10-04T06:49:54.297Z,2872.00
2023-10-04T06:50:54.517Z,3012.00
2023-10-04T06:51:55.237Z,3228.00
2023-10-04T06:52:54.226Z,2800.00
2023-10-04T06:53:54.338Z,2928.00
2023-10-04T06:54:54.191Z,3644.00
2023-10-04T06:55:55.700Z,3452.00
2023-10-04T06:56:54.410Z,3300.00
2023-10-04T06:57:56.035Z,2668.00
2023-10-04T06:58:54.152Z,3248.00
2023-10-04T06:59:54.243Z,2664.00
2023-10-04T07:00:54.238Z,2524.00
2023-10-04T07:01:54.184Z,2560.00
2023-10-04T07:02:54.382Z,2776.00
2023-10-04T07:03:55.213Z,2736.00
2023-10-04T07:04:54.110Z,2812.00
2023-10-04T07:05:54.372Z,2860.00
2023-10-04T07:06:54.092Z,3000.00
2023-10-04T07:07:54.043Z,2808.00
2023-10-04T07:08:55.173Z,2512.00
2023-10-04T07:09:54.091Z,2624.00
2023-10-04T07:10:54.808Z,2608.00
2023-10-04T07:11:54.171Z,2620.00
2023-10-04T07:12:54.073Z,2600.00
2023-10-04T07:13:54.894Z,2072.00
2023-10-04T07:14:54.245Z,2520.00
2023-10-04T07:15:54.363Z,2632.00
2023-10-04T07:16:54.082Z,2740.00
2023-10-04T07:17:54.414Z,3044.00
2023-10-04T07:18:54.131Z,3008.00
2023-10-04T07:19:54.822Z,2956.00
2023-10-04T07:20:53.922Z,3068.00
2023-10-04T07:21:53.898Z,3280.00
2023-10-04T07:22:53.817Z,3308.00
2023-10-04T07:23:53.878Z,3532.00
2023-10-04T07:24:55.610Z,3164.00
2023-10-04T07:25:54.774Z,3284.00
2023-10-04T07:26:53.868Z,3472.00
2023-10-04T07:27:53.748Z,3616.00
2023-10-04T07:28:53.841Z,3440.00
2023-10-04T07:29:53.754Z,3440.00
2023-10-04T07:30:54.760Z,3684.00
2023-10-04T07:31:53.805Z,4168.00
2023-10-04T07:32:53.879Z,4200.00
2023-10-04T07:33:53.713Z,4412.00
2023-10-04T07:34:53.742Z,4604.00
2023-10-04T07:35:55.716Z,3984.00
2023-10-04T07:36:53.714Z,3440.00
2023-10-04T07:37:53.659Z,4180.00
2023-10-04T07:38:54.015Z,3980.00
2023-10-04T07:39:53.697Z,3376.00
2023-10-04T07:40:54.626Z,3624.00
2023-10-04T07:41:53.679Z,3620.00
2023-10-04T07:42:53.636Z,3864.00
2023-10-04T07:43:53.954Z,3844.00
2023-10-04T07:44:53.553Z,3692.00
2023-10-04T07:45:54.681Z,3780.00
2023-10-04T07:46:53.613Z,3924.00
2023-10-04T07:47:53.602Z,3988.00
2023-10-04T07:48:53.672Z,3984.00
2023-10-04T07:49:53.555Z,3768.00
2023-10-04T07:50:56.122Z,3916.00
2023-10-04T07:51:53.535Z,4232.00
2023-10-04T07:52:53.481Z,4984.00
2023-10-04T07:53:53.636Z,4140.00
2023-10-04T07:54:53.528Z,3560.00
2023-10-04T07:55:53.458Z,3660.00
2023-10-04T07:56:54.539Z,4200.00
2023-10-04T07:57:53.456Z,3640.00
2023-10-04T07:58:53.563Z,4088.00
2023-10-04T07:59:53.420Z,4516.00
2023-10-04T08:00:54.218Z,4940.00
2023-10-04T08:01:53.633Z,4732.00
2023-10-04T08:02:54.366Z,4620.00
2023-10-04T08:03:53.514Z,4436.00
2023-10-04T08:04:53.335Z,5108.00
2023-10-04T08:05:53.397Z,5132.00
2023-10-04T08:06:53.401Z,4700.00
2023-10-04T08:07:54.225Z,5732.00
2023-10-04T08:08:54.009Z,6384.00
2023-10-04T08:09:53.380Z,6340.00
2023-10-04T08:10:53.461Z,5524.00
2023-10-04T08:11:53.251Z,5160.00
2023-10-04T08:12:53.433Z,4752.00
2023-10-04T08:13:54.370Z,4696.00
2023-10-04T08:14:53.164Z,5628.00
2023-10-04T08:15:53.385Z,5976.00
2023-10-04T08:16:53.367Z,6148.00
2023-10-04T08:17:53.444Z,6072.00
2023-10-04T08:18:59.524Z,6128.00
2023-10-04T08:19:53.121Z,6340.00
2023-10-04T08:20:53.164Z,6292.00
2023-10-04T08:21:53.213Z,5236.00
2023-10-04T08:22:53.239Z,5084.00
2023-10-04T08:23:53.218Z,5480.00
2023-10-04T08:24:54.297Z,4492.00
2023-10-04T08:25:53.100Z,4752.00
2023-10-04T08:26:53.054Z,4232.00
2023-10-04T08:27:53.186Z,4228.00
2023-10-04T08:28:53.012Z,4368.00
2023-10-04T08:29:52.990Z,3804.00
2023-10-04T08:30:54.012Z,4104.00
2023-10-04T08:31:53.094Z,4928.00
2023-10-04T08:32:53.024Z,5496.00
2023-10-04T08:33:53.008Z,4612.00
2023-10-04T08:34:52.954Z,4912.00
2023-10-04T08:35:53.109Z,5820.00
2023-10-04T08:36:53.960Z,5876.00
2023-10-04T08:37:52.996Z,3724.00
2023-10-04T08:38:52.910Z,3448.00
2023-10-04T08:39:53.045Z,3996.00
2023-10-04T08:40:53.005Z,4904.00
2023-10-04T08:41:53.883Z,6468.00
2023-10-04T08:42:53.112Z,6872.00
2023-10-04T08:43:52.857Z,5280.00
2023-10-04T08:44:52.846Z,5304.00
2023-10-04T08:45:53.887Z,6364.00
2023-10-04T08:46:54.697Z,6412.00
2023-10-04T08:47:52.926Z,4624.00
2023-10-04T08:48:52.935Z,3396.00
2023-10-04T08:49:52.911Z,2932.00
2023-10-04T08:50:52.739Z,3748.00
2023-10-04T08:51:52.836Z,3712.00
2023-10-04T08:52:53.606Z,4620.00
2023-10-04T08:53:52.958Z,6336.00
2023-10-04T08:54:52.696Z,6500.00
2023-10-04T08:55:53.060Z,6904.00
2023-10-04T08:56:52.686Z,6752.00
2023-10-04T08:57:52.675Z,6924.00
2023-10-04T08:58:53.720Z,4952.00
2023-10-04T08:59:52.624Z,6352.00
2023-10-04T09:00:52.698Z,8092.00
2023-10-04T09:01:52.764Z,8440.00
2023-10-04T09:02:52.562Z,5624.00
2023-10-04T09:03:52.920Z,5696.00
2023-10-04T09:04:53.674Z,6840.00
2023-10-04T09:05:52.588Z,7128.00
2023-10-04T09:06:52.578Z,7752.00
2023-10-04T09:07:52.772Z,5400.00
2023-10-04T09:08:52.794Z,7056.00
2023-10-04T09:09:53.699Z,8592.00
2023-10-04T09:10:52.829Z,7836.00
2023-10-04T09:11:52.445Z,7296.00
2023-10-04T09:12:59.588Z,6468.00
2023-10-04T09:13:54.081Z,6856.00
2023-10-04T09:14:55.071Z,6148.00
2023-10-04T09:15:53.414Z,4600.00
2023-10-04T09:16:52.559Z,6632.00
2023-10-04T09:17:52.427Z,5916.00
2023-10-04T09:18:52.474Z,3992.00
2023-10-04T09:19:52.578Z,4120.00
2023-10-04T09:20:52.405Z,3860.00
2023-10-04T09:21:53.972Z,3508.00
2023-10-04T09:22:52.567Z,5300.00
2023-10-04T09:23:52.486Z,4924.00
2023-10-04T09:24:52.302Z,5172.00
2023-10-04T09:25:52.381Z,5804.00
2023-10-04T09:26:52.227Z,5460.00
2023-10-04T09:27:53.372Z,4084.00
2023-10-04T09:28:52.273Z,4736.00
2023-10-04T09:29:52.184Z,5352.00
2023-10-04T09:30:52.448Z,5672.00
2023-10-04T09:31:52.288Z,3428.00
2023-10-04T09:32:53.215Z,4580.00
2023-10-04T09:33:53.322Z,4320.00
2023-10-04T09:34:52.223Z,5928.00
2023-10-04T09:35:52.486Z,5976.00
2023-10-04T09:36:52.184Z,8380.00
2023-10-04T09:37:52.162Z,7928.00
2023-10-04T09:38:52.940Z,8084.00
2023-10-04T09:39:53.194Z,8228.00
2023-10-04T09:40:52.192Z,9444.00
2023-10-04T09:41:52.176Z,9420.00
2023-10-04T09:42:52.119Z,10536.00
2023-10-04T09:43:52.307Z,11520.00
2023-10-04T09:44:52.378Z,13000.00
2023-10-04T09:45:53.731Z,11724.00
2023-10-04T09:46:52.050Z,10496.00
2023-10-04T09:47:52.174Z,10532.00
2023-10-04T09:48:52.012Z,9620.00
2023-10-04T09:49:52.126Z,9352.00
2023-10-04T09:50:53.231Z,9152.00
2023-10-04T09:51:52.046Z,7780.00
2023-10-04T09:52:51.909Z,7588.00
2023-10-04T09:53:51.924Z,6772.00
2023-10-04T09:54:51.913Z,7892.00
2023-10-04T09:55:52.036Z,8416.00
2023-10-04T09:56:52.969Z,8652.00
2023-10-04T09:57:51.962Z,9856.00
2023-10-04T09:58:51.978Z,8888.00
2023-10-04T10:00:54.479Z,7292.00
2023-10-04T10:01:55.299Z,6752.00
2023-10-04T10:02:54.330Z,6056.00
2023-10-04T10:03:54.488Z,6704.00
2023-10-04T10:04:54.409Z,6424.00
2023-10-04T10:05:54.249Z,7792.00
2023-10-04T10:06:54.332Z,5112.00
2023-10-04T10:07:55.152Z,6396.00
2023-10-04T10:08:54.212Z,5784.00
2023-10-04T10:10:00.565Z,8904.00
2023-10-04T10:10:55.768Z,7060.00
2023-10-04T10:11:54.180Z,5956.00
2023-10-04T10:12:55.157Z,3672.00
2023-10-04T10:13:54.145Z,4032.00
2023-10-04T10:14:54.136Z,5076.00
2023-10-04T10:15:54.104Z,5784.00
2023-10-04T10:16:54.281Z,7316.00
2023-10-04T10:17:55.057Z,4928.00
2023-10-04T10:18:54.198Z,3108.00
2023-10-04T10:19:54.057Z,2520.00
2023-10-04T10:20:54.964Z,2844.00
2023-10-04T10:21:54.154Z,4660.00
2023-10-04T10:22:55.013Z,5968.00
2023-10-04T10:23:54.226Z,4544.00
2023-10-04T10:24:54.043Z,5196.00
2023-10-04T10:25:53.979Z,4128.00
2023-10-04T10:26:53.995Z,6268.00
2023-10-04T10:28:25.838Z,10116.00
2023-10-04T10:28:53.997Z,3968.00
2023-10-04T10:29:53.907Z,2624.00
2023-10-04T10:30:53.990Z,2068.00
2023-10-04T10:31:53.940Z,1728.00
2023-10-04T10:32:53.977Z,1312.00
2023-10-04T10:33:54.956Z,888.00
2023-10-04T10:34:53.947Z,1276.00
2023-10-04T10:35:53.893Z,2792.00
2023-10-04T10:36:54.325Z,3148.00
2023-10-04T10:37:53.902Z,3452.00
2023-10-04T10:38:54.793Z,3332.00
2023-10-04T10:39:53.826Z,3420.00
2023-10-04T10:40:53.880Z,5604.00
2023-10-04T10:41:53.891Z,6160.00
2023-10-04T10:42:53.808Z,7328.00
2023-10-04T10:44:09.451Z,8308.00
2023-10-04T10:44:55.237Z,7208.00
2023-10-04T10:45:53.801Z,5404.00
2023-10-04T10:46:54.530Z,4960.00
2023-10-04T10:47:59.594Z,3856.00
2023-10-04T10:48:55.261Z,4368.00
2023-10-04T10:49:54.658Z,7940.00
2023-10-04T10:50:53.675Z,9756.00
2023-10-04T10:51:53.746Z,8520.00
2023-10-04T10:52:53.688Z,7628.00
2023-10-04T10:53:53.608Z,11004.00
2023-10-04T10:54:54.627Z,13128.00
2023-10-04T10:55:53.605Z,14592.00
2023-10-04T10:56:53.602Z,8728.00
2023-10-04T10:57:53.620Z,8072.00
2023-10-04T10:58:53.600Z,7696.00
2023-10-04T10:59:53.580Z,7964.00
2023-10-04T11:00:54.607Z,6880.00
2023-10-04T11:01:53.564Z,3700.00
2023-10-04T11:02:53.578Z,2968.00
2023-10-04T11:03:53.539Z,4588.00
2023-10-04T11:04:53.534Z,6920.00
2023-10-04T11:05:54.417Z,6256.00
2023-10-04T11:06:53.525Z,6268.00
2023-10-04T11:07:53.494Z,5940.00
2023-10-04T11:08:53.472Z,7276.00
2023-10-04T11:09:54.281Z,7576.00
2023-10-04T11:10:58.095Z,5220.00
2023-10-04T11:11:53.474Z,4432.00
2023-10-04T11:12:53.464Z,3900.00
2023-10-04T11:13:53.546Z,2588.00
2023-10-04T11:14:53.351Z,1712.00
2023-10-04T11:15:54.362Z,1448.00
2023-10-04T11:16:55.385Z,1784.00
2023-10-04T11:17:53.372Z,1868.00
2023-10-04T11:18:53.436Z,2556.00
2023-10-04T11:19:53.294Z,1756.00
2023-10-04T11:20:53.280Z,2384.00
2023-10-04T11:21:54.329Z,2064.00
2023-10-04T11:22:53.285Z,3236.00
2023-10-04T11:23:53.230Z,5428.00
2023-10-04T11:24:53.294Z,5684.00
2023-10-04T11:25:53.274Z,6272.00
2023-10-04T11:26:54.102Z,15872.00
2023-10-04T11:27:53.303Z,14400.00
2023-10-04T11:28:53.153Z,8676.00
2023-10-04T11:29:53.187Z,16064.00
2023-10-04T11:30:54.189Z,15936.00
2023-10-04T11:31:53.173Z,16096.00
2023-10-04T11:32:54.174Z,16544.00
2023-10-04T11:33:53.148Z,7304.00
2023-10-04T11:34:53.088Z,17664.00
2023-10-04T11:35:53.093Z,10564.00
2023-10-04T11:36:53.187Z,14528.00
2023-10-04T11:37:53.063Z,17440.00
2023-10-04T11:38:53.983Z,11200.00
2023-10-04T11:39:53.159Z,13924.00
2023-10-04T11:40:53.005Z,8108.00
2023-10-04T11:41:53.036Z,8352.00
2023-10-04T11:42:53.070Z,16896.00
2023-10-04T11:43:52.996Z,10240.00
2023-10-04T11:44:53.930Z,9464.00
2023-10-04T11:45:53.057Z,16768.00
2023-10-04T11:46:53.010Z,15552.00
2023-10-04T11:47:52.988Z,4052.00
2023-10-04T11:48:52.972Z,2952.00
2023-10-04T11:49:53.824Z,2336.00
2023-10-04T11:50:52.959Z,2144.00
2023-10-04T11:51:53.182Z,2188.00
2023-10-04T11:52:52.893Z,1956.00
2023-10-04T11:53:52.870Z,1672.00
2023-10-04T11:54:54.095Z,1464.00
2023-10-04T11:55:52.810Z,1580.00
2023-10-04T11:56:52.891Z,1852.00
2023-10-04T11:57:52.815Z,2932.00
2023-10-04T11:58:55.273Z,4748.00
2023-10-04T11:59:52.781Z,4840.00
2023-10-04T12:00:53.753Z,4324.00
2023-10-04T12:01:53.469Z,4332.00
2023-10-04T12:02:52.860Z,4832.00
2023-10-04T12:03:52.958Z,5624.00
2023-10-04T12:04:52.732Z,4672.00
2023-10-04T12:05:52.759Z,4640.00
2023-10-04T12:06:53.649Z,5304.00
2023-10-04T12:07:52.661Z,6580.00
2023-10-04T12:08:52.694Z,7384.00
2023-10-04T12:09:52.653Z,6516.00
2023-10-04T12:10:52.669Z,6472.00
2023-10-04T12:11:52.866Z,8860.00
2023-10-04T12:12:53.585Z,16352.00
2023-10-04T12:13:52.647Z,10460.00
2023-10-04T12:14:52.592Z,15040.00
2023-10-04T12:15:52.584Z,17408.00
2023-10-04T12:16:52.608Z,16224.00
2023-10-04T12:17:53.573Z,12104.00
2023-10-04T12:18:52.566Z,14752.00
2023-10-04T12:19:52.700Z,12532.00
2023-10-04T12:20:52.661Z,7960.00
2023-10-04T12:21:52.544Z,14080.00
2023-10-04T12:22:52.465Z,6916.00
2023-10-04T12:23:53.407Z,8172.00
2023-10-04T12:24:52.624Z,7532.00
2023-10-04T12:25:52.557Z,8044.00
2023-10-04T12:26:52.417Z,9228.00
2023-10-04T12:27:52.441Z,14240.00
2023-10-04T12:28:53.334Z,8452.00
2023-10-04T12:29:52.416Z,10860.00
2023-10-04T12:30:52.496Z,12776.00
2023-10-04T12:31:52.442Z,12728.00
2023-10-04T12:32:52.373Z,16064.00
2023-10-04T12:33:53.330Z,16160.00
2023-10-04T12:34:52.499Z,16224.00
2023-10-04T12:35:52.361Z,16736.00